sensor_id;sensor_type;location;lat;lon;timestamp;P1;durP1;ratioP1;P2;durP2;ratioP2
3627;SDS011;1830;49.000;12.074;2023-03-23T00:02:03;13.40;;;7.20;;
3627;SDS011;1830;49.000;12.074;2023-03-23T00:04:29;11.20;;;7.67;;
3627;SDS011;1830;49.000;12.074;2023-03-23T00:06:56;11.37;;;7.37;;
3627;SDS011;1830;49.000;12.074;2023-03-23T00:09:25;10.83;;;7.47;;
3627;SDS011;1830;49.000;12.074;2023-03-23T00:11:52;14.67;;;6.87;;
3627;SDS011;1830;49.000;12.074;2023-03-23T00:14:22;10.27;;;6.90;;
3627;SDS011;1830;49.000;12.074;2023-03-23T00:16:50;12.50;;;8.00;;
3627;SDS011;1830;49.000;12.074;2023-03-23T00:19:18;19.47;;;8.50;;
3627;SDS011;1830;49.000;12.074;2023-03-23T00:21:45;12.87;;;7.90;;
3627;SDS011;1830;49.000;12.074;2023-03-23T00:24:12;15.00;;;7.80;;
3627;SDS011;1830;49.000;12.074;2023-03-23T00:26:41;10.17;;;7.70;;
3627;SDS011;1830;49.000;12.074;2023-03-23T00:29:12;14.70;;;8.03;;
3627;SDS011;1830;49.000;12.074;2023-03-23T00:31:41;17.03;;;8.30;;
3627;SDS011;1830;49.000;12.074;2023-03-23T00:34:12;11.30;;;7.60;;
3627;SDS011;1830;49.000;12.074;2023-03-23T00:36:45;12.33;;;8.10;;
3627;SDS011;1830;49.000;12.074;2023-03-23T00:39:14;13.50;;;7.60;;
3627;SDS011;1830;49.000;12.074;2023-03-23T00:41:42;18.33;;;7.10;;
3627;SDS011;1830;49.000;12.074;2023-03-23T00:44:09;12.10;;;6.87;;
3627;SDS011;1830;49.000;12.074;2023-03-23T00:46:42;11.57;;;8.07;;
3627;SDS011;1830;49.000;12.074;2023-03-23T00:49:11;23.50;;;8.63;;
3627;SDS011;1830;49.000;12.074;2023-03-23T00:51:39;10.47;;;7.70;;
3627;SDS011;1830;49.000;12.074;2023-03-23T00:54:07;15.47;;;8.27;;
3627;SDS011;1830;49.000;12.074;2023-03-23T00:56:35;10.40;;;7.73;;
3627;SDS011;1830;49.000;12.074;2023-03-23T00:59:04;13.30;;;7.10;;
3627;SDS011;1830;49.000;12.074;2023-03-23T01:01:31;17.30;;;7.43;;
3627;SDS011;1830;49.000;12.074;2023-03-23T01:03:58;10.80;;;7.23;;
3627;SDS011;1830;49.000;12.074;2023-03-23T01:06:29;13.63;;;7.67;;
3627;SDS011;1830;49.000;12.074;2023-03-23T01:08:57;9.23;;;6.57;;
3627;SDS011;1830;49.000;12.074;2023-03-23T01:11:27;47.13;;;6.80;;
3627;SDS011;1830;49.000;12.074;2023-03-23T01:13:54;7.53;;;6.13;;
3627;SDS011;1830;49.000;12.074;2023-03-23T01:16:21;8.33;;;6.50;;
3627;SDS011;1830;49.000;12.074;2023-03-23T01:18:48;11.50;;;6.57;;
3627;SDS011;1830;49.000;12.074;2023-03-23T01:21:16;17.50;;;6.77;;
3627;SDS011;1830;49.000;12.074;2023-03-23T01:23:44;19.40;;;7.60;;
3627;SDS011;1830;49.000;12.074;2023-03-23T01:26:12;10.60;;;7.37;;
3627;SDS011;1830;49.000;12.074;2023-03-23T01:28:42;9.97;;;7.13;;
3627;SDS011;1830;49.000;12.074;2023-03-23T01:31:10;12.50;;;8.23;;
3627;SDS011;1830;49.000;12.074;2023-03-23T01:33:38;14.00;;;8.07;;
3627;SDS011;1830;49.000;12.074;2023-03-23T01:36:07;13.00;;;7.90;;
3627;SDS011;1830;49.000;12.074;2023-03-23T01:38:37;19.53;;;9.63;;
3627;SDS011;1830;49.000;12.074;2023-03-23T01:41:04;11.63;;;7.00;;
3627;SDS011;1830;49.000;12.074;2023-03-23T01:43:31;14.10;;;7.90;;
3627;SDS011;1830;49.000;12.074;2023-03-23T01:45:59;13.97;;;8.00;;
3627;SDS011;1830;49.000;12.074;2023-03-23T01:48:26;10.30;;;7.47;;
3627;SDS011;1830;49.000;12.074;2023-03-23T01:50:58;17.40;;;7.60;;
3627;SDS011;1830;49.000;12.074;2023-03-23T01:53:30;9.60;;;6.60;;
3627;SDS011;1830;49.000;12.074;2023-03-23T01:56:01;10.10;;;5.63;;
3627;SDS011;1830;49.000;12.074;2023-03-23T01:58:29;8.00;;;5.80;;
3627;SDS011;1830;49.000;12.074;2023-03-23T02:01:01;6.40;;;5.50;;
3627;SDS011;1830;49.000;12.074;2023-03-23T02:03:30;8.10;;;5.67;;
3627;SDS011;1830;49.000;12.074;2023-03-23T02:05:58;8.13;;;5.83;;
3627;SDS011;1830;49.000;12.074;2023-03-23T02:08:26;10.27;;;5.77;;
3627;SDS011;1830;49.000;12.074;2023-03-23T02:10:54;12.23;;;6.20;;
3627;SDS011;1830;49.000;12.074;2023-03-23T02:13:21;11.93;;;6.27;;
3627;SDS011;1830;49.000;12.074;2023-03-23T02:15:52;11.93;;;6.60;;
3627;SDS011;1830;49.000;12.074;2023-03-23T02:18:35;10.90;;;6.40;;
3627;SDS011;1830;49.000;12.074;2023-03-23T02:21:13;14.13;;;8.43;;
3627;SDS011;1830;49.000;12.074;2023-03-23T02:24:09;10.03;;;7.13;;
3627;SDS011;1830;49.000;12.074;2023-03-23T02:26:50;17.93;;;7.50;;
3627;SDS011;1830;49.000;12.074;2023-03-23T02:29:29;14.40;;;8.30;;
3627;SDS011;1830;49.000;12.074;2023-03-23T02:32:30;11.73;;;8.00;;
3627;SDS011;1830;49.000;12.074;2023-03-23T02:35:21;17.10;;;7.97;;
3627;SDS011;1830;49.000;12.074;2023-03-23T02:37:52;10.40;;;8.17;;
3627;SDS011;1830;49.000;12.074;2023-03-23T02:40:24;14.03;;;7.10;;
3627;SDS011;1830;49.000;12.074;2023-03-23T02:42:56;10.27;;;8.10;;
3627;SDS011;1830;49.000;12.074;2023-03-23T02:45:25;13.70;;;8.03;;
3627;SDS011;1830;49.000;12.074;2023-03-23T02:47:55;12.07;;;8.70;;
3627;SDS011;1830;49.000;12.074;2023-03-23T02:50:24;13.53;;;8.47;;
3627;SDS011;1830;49.000;12.074;2023-03-23T02:52:53;13.10;;;9.27;;
3627;SDS011;1830;49.000;12.074;2023-03-23T02:55:23;13.07;;;9.13;;
3627;SDS011;1830;49.000;12.074;2023-03-23T02:57:52;13.30;;;8.20;;
3627;SDS011;1830;49.000;12.074;2023-03-23T03:00:19;15.13;;;8.57;;
3627;SDS011;1830;49.000;12.074;2023-03-23T03:02:47;14.27;;;7.83;;
3627;SDS011;1830;49.000;12.074;2023-03-23T03:05:19;15.33;;;9.97;;
3627;SDS011;1830;49.000;12.074;2023-03-23T03:07:57;17.17;;;9.20;;
3627;SDS011;1830;49.000;12.074;2023-03-23T03:10:27;10.97;;;8.50;;
3627;SDS011;1830;49.000;12.074;2023-03-23T03:15:41;13.97;;;9.40;;
3627;SDS011;1830;49.000;12.074;2023-03-23T03:18:16;15.10;;;8.50;;
3627;SDS011;1830;49.000;12.074;2023-03-23T03:20:48;14.97;;;8.67;;
3627;SDS011;1830;49.000;12.074;2023-03-23T03:23:21;12.27;;;8.70;;
3627;SDS011;1830;49.000;12.074;2023-03-23T03:28:37;14.80;;;8.33;;
3627;SDS011;1830;49.000;12.074;2023-03-23T03:31:06;11.97;;;8.33;;
3627;SDS011;1830;49.000;12.074;2023-03-23T03:33:34;13.63;;;9.60;;
3627;SDS011;1830;49.000;12.074;2023-03-23T03:36:02;16.10;;;9.53;;
3627;SDS011;1830;49.000;12.074;2023-03-23T03:38:41;31.27;;;10.53;;
3627;SDS011;1830;49.000;12.074;2023-03-23T03:41:09;15.40;;;9.60;;
3627;SDS011;1830;49.000;12.074;2023-03-23T03:43:36;13.83;;;9.33;;
3627;SDS011;1830;49.000;12.074;2023-03-23T03:46:03;10.77;;;8.07;;
3627;SDS011;1830;49.000;12.074;2023-03-23T03:48:29;14.50;;;9.07;;
3627;SDS011;1830;49.000;12.074;2023-03-23T03:50:56;17.73;;;8.87;;
3627;SDS011;1830;49.000;12.074;2023-03-23T03:53:25;15.50;;;9.70;;
3627;SDS011;1830;49.000;12.074;2023-03-23T03:55:53;20.60;;;9.23;;
3627;SDS011;1830;49.000;12.074;2023-03-23T03:58:25;11.97;;;8.33;;
3627;SDS011;1830;49.000;12.074;2023-03-23T04:00:56;14.03;;;8.67;;
3627;SDS011;1830;49.000;12.074;2023-03-23T04:03:24;15.43;;;9.43;;
3627;SDS011;1830;49.000;12.074;2023-03-23T04:05:51;21.33;;;9.93;;
3627;SDS011;1830;49.000;12.074;2023-03-23T04:08:20;18.77;;;9.87;;
3627;SDS011;1830;49.000;12.074;2023-03-23T04:10:46;13.30;;;8.37;;
3627;SDS011;1830;49.000;12.074;2023-03-23T04:13:15;15.23;;;8.57;;
3627;SDS011;1830;49.000;12.074;2023-03-23T04:15:43;13.23;;;9.40;;
3627;SDS011;1830;49.000;12.074;2023-03-23T04:18:10;18.60;;;8.93;;
3627;SDS011;1830;49.000;12.074;2023-03-23T04:20:38;12.33;;;8.87;;
3627;SDS011;1830;49.000;12.074;2023-03-23T04:23:05;14.03;;;9.30;;
3627;SDS011;1830;49.000;12.074;2023-03-23T04:25:32;15.20;;;10.37;;
3627;SDS011;1830;49.000;12.074;2023-03-23T04:28:00;14.83;;;9.13;;
3627;SDS011;1830;49.000;12.074;2023-03-23T04:30:38;13.93;;;9.10;;
3627;SDS011;1830;49.000;12.074;2023-03-23T04:33:08;19.60;;;9.33;;
3627;SDS011;1830;49.000;12.074;2023-03-23T04:35:39;11.93;;;8.50;;
3627;SDS011;1830;49.000;12.074;2023-03-23T04:38:07;12.60;;;9.40;;
3627;SDS011;1830;49.000;12.074;2023-03-23T04:40:35;19.63;;;10.67;;
3627;SDS011;1830;49.000;12.074;2023-03-23T04:43:02;13.13;;;9.20;;
3627;SDS011;1830;49.000;12.074;2023-03-23T04:45:31;11.10;;;8.83;;
3627;SDS011;1830;49.000;12.074;2023-03-23T04:48:00;13.70;;;9.80;;
3627;SDS011;1830;49.000;12.074;2023-03-23T04:50:30;24.23;;;9.70;;
3627;SDS011;1830;49.000;12.074;2023-03-23T04:52:58;15.10;;;8.53;;
3627;SDS011;1830;49.000;12.074;2023-03-23T04:55:29;20.20;;;9.23;;
3627;SDS011;1830;49.000;12.074;2023-03-23T04:57:56;15.80;;;8.23;;
3627;SDS011;1830;49.000;12.074;2023-03-23T05:00:25;11.30;;;8.83;;
3627;SDS011;1830;49.000;12.074;2023-03-23T05:02:52;14.70;;;9.30;;
3627;SDS011;1830;49.000;12.074;2023-03-23T05:05:22;12.03;;;8.60;;
3627;SDS011;1830;49.000;12.074;2023-03-23T05:07:49;15.43;;;9.40;;
3627;SDS011;1830;49.000;12.074;2023-03-23T05:10:16;20.13;;;9.53;;
3627;SDS011;1830;49.000;12.074;2023-03-23T05:12:44;16.90;;;9.37;;
3627;SDS011;1830;49.000;12.074;2023-03-23T05:15:12;14.57;;;9.53;;
3627;SDS011;1830;49.000;12.074;2023-03-23T05:17:40;13.80;;;8.13;;
3627;SDS011;1830;49.000;12.074;2023-03-23T05:20:10;10.57;;;8.27;;
3627;SDS011;1830;49.000;12.074;2023-03-23T05:22:39;14.30;;;8.40;;
3627;SDS011;1830;49.000;12.074;2023-03-23T05:25:07;10.60;;;8.73;;
3627;SDS011;1830;49.000;12.074;2023-03-23T05:27:35;11.43;;;8.33;;
3627;SDS011;1830;49.000;12.074;2023-03-23T05:30:02;13.93;;;7.93;;
3627;SDS011;1830;49.000;12.074;2023-03-23T05:32:30;18.90;;;8.97;;
3627;SDS011;1830;49.000;12.074;2023-03-23T05:34:57;13.23;;;9.53;;
3627;SDS011;1830;49.000;12.074;2023-03-23T05:37:31;16.77;;;9.20;;
3627;SDS011;1830;49.000;12.074;2023-03-23T05:40:00;13.83;;;8.87;;
3627;SDS011;1830;49.000;12.074;2023-03-23T05:42:30;14.53;;;8.87;;
3627;SDS011;1830;49.000;12.074;2023-03-23T05:44:57;11.77;;;8.87;;
3627;SDS011;1830;49.000;12.074;2023-03-23T05:47:25;18.37;;;8.03;;
3627;SDS011;1830;49.000;12.074;2023-03-23T05:49:52;12.17;;;8.63;;
3627;SDS011;1830;49.000;12.074;2023-03-23T05:52:19;15.47;;;10.00;;
3627;SDS011;1830;49.000;12.074;2023-03-23T05:54:46;17.53;;;9.53;;
3627;SDS011;1830;49.000;12.074;2023-03-23T05:57:26;16.90;;;8.70;;
3627;SDS011;1830;49.000;12.074;2023-03-23T05:59:53;21.70;;;9.23;;
3627;SDS011;1830;49.000;12.074;2023-03-23T06:02:20;13.30;;;9.93;;
3627;SDS011;1830;49.000;12.074;2023-03-23T06:04:48;17.50;;;9.87;;
3627;SDS011;1830;49.000;12.074;2023-03-23T06:07:15;19.63;;;9.47;;
3627;SDS011;1830;49.000;12.074;2023-03-23T06:09:42;15.27;;;9.20;;
3627;SDS011;1830;49.000;12.074;2023-03-23T06:12:09;22.23;;;9.90;;
3627;SDS011;1830;49.000;12.074;2023-03-23T06:14:37;15.30;;;8.77;;
3627;SDS011;1830;49.000;12.074;2023-03-23T06:17:04;16.40;;;10.00;;
3627;SDS011;1830;49.000;12.074;2023-03-23T06:19:33;14.60;;;9.40;;
3627;SDS011;1830;49.000;12.074;2023-03-23T06:22:00;16.00;;;9.83;;
3627;SDS011;1830;49.000;12.074;2023-03-23T06:24:27;18.07;;;9.97;;
3627;SDS011;1830;49.000;12.074;2023-03-23T06:26:54;16.97;;;10.70;;
3627;SDS011;1830;49.000;12.074;2023-03-23T06:29:21;19.63;;;12.20;;
3627;SDS011;1830;49.000;12.074;2023-03-23T06:31:51;26.17;;;11.70;;
3627;SDS011;1830;49.000;12.074;2023-03-23T06:34:21;18.90;;;12.00;;
3627;SDS011;1830;49.000;12.074;2023-03-23T06:36:48;15.80;;;11.13;;
3627;SDS011;1830;49.000;12.074;2023-03-23T06:39:15;20.60;;;11.43;;
3627;SDS011;1830;49.000;12.074;2023-03-23T06:41:42;30.80;;;12.40;;
3627;SDS011;1830;49.000;12.074;2023-03-23T06:44:08;26.67;;;12.17;;
3627;SDS011;1830;49.000;12.074;2023-03-23T06:46:38;16.63;;;11.97;;
3627;SDS011;1830;49.000;12.074;2023-03-23T06:49:07;27.10;;;13.40;;
3627;SDS011;1830;49.000;12.074;2023-03-23T06:51:34;24.53;;;12.80;;
3627;SDS011;1830;49.000;12.074;2023-03-23T06:54:01;24.70;;;12.27;;
3627;SDS011;1830;49.000;12.074;2023-03-23T06:56:28;18.17;;;12.23;;
3627;SDS011;1830;49.000;12.074;2023-03-23T06:58:55;18.37;;;11.30;;
3627;SDS011;1830;49.000;12.074;2023-03-23T07:01:22;19.43;;;11.43;;
3627;SDS011;1830;49.000;12.074;2023-03-23T07:03:49;21.83;;;12.60;;
3627;SDS011;1830;49.000;12.074;2023-03-23T07:06:17;16.63;;;11.77;;
3627;SDS011;1830;49.000;12.074;2023-03-23T07:08:44;19.37;;;12.07;;
3627;SDS011;1830;49.000;12.074;2023-03-23T07:11:11;17.23;;;11.07;;
3627;SDS011;1830;49.000;12.074;2023-03-23T07:13:38;16.10;;;11.50;;
3627;SDS011;1830;49.000;12.074;2023-03-23T07:16:07;20.57;;;11.77;;
3627;SDS011;1830;49.000;12.074;2023-03-23T07:18:35;21.50;;;11.87;;
3627;SDS011;1830;49.000;12.074;2023-03-23T07:21:02;13.90;;;11.40;;
3627;SDS011;1830;49.000;12.074;2023-03-23T07:23:31;22.13;;;11.43;;
3627;SDS011;1830;49.000;12.074;2023-03-23T07:25:58;18.73;;;10.60;;
3627;SDS011;1830;49.000;12.074;2023-03-23T07:28:25;16.13;;;11.40;;
3627;SDS011;1830;49.000;12.074;2023-03-23T07:30:52;15.53;;;10.93;;
3627;SDS011;1830;49.000;12.074;2023-03-23T07:33:19;18.10;;;11.00;;
3627;SDS011;1830;49.000;12.074;2023-03-23T07:35:48;15.77;;;11.03;;
3627;SDS011;1830;49.000;12.074;2023-03-23T07:38:15;19.37;;;10.83;;
3627;SDS011;1830;49.000;12.074;2023-03-23T07:40:43;19.73;;;10.57;;
3627;SDS011;1830;49.000;12.074;2023-03-23T07:43:12;14.40;;;11.07;;
3627;SDS011;1830;49.000;12.074;2023-03-23T07:45:39;15.67;;;11.30;;
3627;SDS011;1830;49.000;12.074;2023-03-23T07:48:06;23.13;;;10.87;;
3627;SDS011;1830;49.000;12.074;2023-03-23T07:50:34;12.97;;;11.00;;
3627;SDS011;1830;49.000;12.074;2023-03-23T07:53:02;15.50;;;12.20;;
3627;SDS011;1830;49.000;12.074;2023-03-23T07:55:29;27.47;;;12.53;;
3627;SDS011;1830;49.000;12.074;2023-03-23T07:57:57;17.33;;;12.30;;
3627;SDS011;1830;49.000;12.074;2023-03-23T08:00:26;15.83;;;11.83;;
3627;SDS011;1830;49.000;12.074;2023-03-23T08:02:54;17.13;;;11.13;;
3627;SDS011;1830;49.000;12.074;2023-03-23T08:05:24;18.60;;;12.20;;
3627;SDS011;1830;49.000;12.074;2023-03-23T08:07:53;20.17;;;11.97;;
3627;SDS011;1830;49.000;12.074;2023-03-23T08:10:21;14.10;;;11.73;;
3627;SDS011;1830;49.000;12.074;2023-03-23T08:12:50;17.00;;;11.13;;
3627;SDS011;1830;49.000;12.074;2023-03-23T08:15:20;20.70;;;11.20;;
3627;SDS011;1830;49.000;12.074;2023-03-23T08:17:48;15.50;;;12.27;;
3627;SDS011;1830;49.000;12.074;2023-03-23T08:20:15;14.70;;;11.10;;
3627;SDS011;1830;49.000;12.074;2023-03-23T08:22:44;18.20;;;11.23;;
3627;SDS011;1830;49.000;12.074;2023-03-23T08:25:14;16.07;;;11.23;;
3627;SDS011;1830;49.000;12.074;2023-03-23T08:27:42;18.10;;;11.33;;
3627;SDS011;1830;49.000;12.074;2023-03-23T08:30:10;16.20;;;11.43;;
3627;SDS011;1830;49.000;12.074;2023-03-23T08:32:40;16.07;;;11.83;;
3627;SDS011;1830;49.000;12.074;2023-03-23T08:35:08;17.77;;;10.40;;
3627;SDS011;1830;49.000;12.074;2023-03-23T08:37:36;15.03;;;10.90;;
3627;SDS011;1830;49.000;12.074;2023-03-23T08:40:04;12.30;;;10.23;;
3627;SDS011;1830;49.000;12.074;2023-03-23T08:42:35;15.27;;;11.63;;
3627;SDS011;1830;49.000;12.074;2023-03-23T08:45:02;19.40;;;11.30;;
3627;SDS011;1830;49.000;12.074;2023-03-23T08:47:30;17.10;;;11.33;;
3627;SDS011;1830;49.000;12.074;2023-03-23T08:49:58;18.93;;;11.83;;
3627;SDS011;1830;49.000;12.074;2023-03-23T08:52:25;16.33;;;11.00;;
3627;SDS011;1830;49.000;12.074;2023-03-23T08:54:52;19.30;;;11.33;;
3627;SDS011;1830;49.000;12.074;2023-03-23T08:57:19;19.53;;;12.47;;
3627;SDS011;1830;49.000;12.074;2023-03-23T08:59:46;18.73;;;11.27;;
3627;SDS011;1830;49.000;12.074;2023-03-23T09:02:13;17.90;;;11.40;;
3627;SDS011;1830;49.000;12.074;2023-03-23T09:04:40;14.43;;;10.20;;
3627;SDS011;1830;49.000;12.074;2023-03-23T09:07:09;16.07;;;11.60;;
3627;SDS011;1830;49.000;12.074;2023-03-23T09:12:10;15.83;;;11.50;;
3627;SDS011;1830;49.000;12.074;2023-03-23T09:14:37;30.07;;;11.47;;
3627;SDS011;1830;49.000;12.074;2023-03-23T09:17:05;12.33;;;10.50;;
3627;SDS011;1830;49.000;12.074;2023-03-23T09:19:32;22.20;;;11.93;;
3627;SDS011;1830;49.000;12.074;2023-03-23T09:21:59;22.83;;;12.10;;
3627;SDS011;1830;49.000;12.074;2023-03-23T09:24:28;23.63;;;11.80;;
3627;SDS011;1830;49.000;12.074;2023-03-23T09:26:55;12.70;;;10.90;;
3627;SDS011;1830;49.000;12.074;2023-03-23T09:29:23;14.60;;;11.13;;
3627;SDS011;1830;49.000;12.074;2023-03-23T09:31:50;14.70;;;11.07;;
3627;SDS011;1830;49.000;12.074;2023-03-23T09:34:17;15.13;;;11.03;;
3627;SDS011;1830;49.000;12.074;2023-03-23T09:36:44;16.70;;;10.67;;
3627;SDS011;1830;49.000;12.074;2023-03-23T09:39:11;23.20;;;11.60;;
3627;SDS011;1830;49.000;12.074;2023-03-23T09:41:48;15.27;;;11.40;;
3627;SDS011;1830;49.000;12.074;2023-03-23T09:44:35;17.53;;;11.30;;
3627;SDS011;1830;49.000;12.074;2023-03-23T09:47:10;17.13;;;11.80;;
3627;SDS011;1830;49.000;12.074;2023-03-23T09:49:44;15.23;;;10.90;;
3627;SDS011;1830;49.000;12.074;2023-03-23T09:52:15;15.50;;;12.30;;
3627;SDS011;1830;49.000;12.074;2023-03-23T09:54:43;15.27;;;12.00;;
3627;SDS011;1830;49.000;12.074;2023-03-23T09:57:15;18.07;;;12.23;;
3627;SDS011;1830;49.000;12.074;2023-03-23T09:59:49;18.40;;;11.97;;
3627;SDS011;1830;49.000;12.074;2023-03-23T10:02:20;23.37;;;11.10;;
3627;SDS011;1830;49.000;12.074;2023-03-23T10:04:54;29.13;;;11.30;;
3627;SDS011;1830;49.000;12.074;2023-03-23T10:07:24;15.17;;;11.03;;
3627;SDS011;1830;49.000;12.074;2023-03-23T10:09:53;17.80;;;12.87;;
3627;SDS011;1830;49.000;12.074;2023-03-23T10:12:27;17.10;;;12.40;;
3627;SDS011;1830;49.000;12.074;2023-03-23T10:15:01;14.57;;;11.00;;
3627;SDS011;1830;49.000;12.074;2023-03-23T10:17:39;23.30;;;12.60;;
3627;SDS011;1830;49.000;12.074;2023-03-23T10:20:18;18.03;;;12.00;;
3627;SDS011;1830;49.000;12.074;2023-03-23T10:22:54;19.93;;;12.40;;
3627;SDS011;1830;49.000;12.074;2023-03-23T10:25:27;23.50;;;12.20;;
3627;SDS011;1830;49.000;12.074;2023-03-23T10:27:59;16.10;;;12.37;;
3627;SDS011;1830;49.000;12.074;2023-03-23T10:30:36;18.70;;;11.93;;
3627;SDS011;1830;49.000;12.074;2023-03-23T10:33:08;13.87;;;11.00;;
3627;SDS011;1830;49.000;12.074;2023-03-23T10:35:41;21.30;;;11.60;;
3627;SDS011;1830;49.000;12.074;2023-03-23T10:38:11;25.10;;;11.40;;
3627;SDS011;1830;49.000;12.074;2023-03-23T10:40:45;20.07;;;11.33;;
3627;SDS011;1830;49.000;12.074;2023-03-23T10:43:16;14.67;;;10.90;;
3627;SDS011;1830;49.000;12.074;2023-03-23T10:45:43;9.00;;;6.93;;
3627;SDS011;1830;49.000;12.074;2023-03-23T10:48:14;8.90;;;5.50;;
3627;SDS011;1830;49.000;12.074;2023-03-23T10:50:45;8.37;;;5.60;;
3627;SDS011;1830;49.000;12.074;2023-03-23T10:53:21;8.53;;;4.93;;
3627;SDS011;1830;49.000;12.074;2023-03-23T10:55:49;7.00;;;5.40;;
3627;SDS011;1830;49.000;12.074;2023-03-23T10:58:23;11.30;;;5.00;;
3627;SDS011;1830;49.000;12.074;2023-03-23T11:00:53;7.13;;;5.40;;
3627;SDS011;1830;49.000;12.074;2023-03-23T11:03:23;10.43;;;5.00;;
3627;SDS011;1830;49.000;12.074;2023-03-23T11:05:54;8.40;;;5.10;;
3627;SDS011;1830;49.000;12.074;2023-03-23T11:08:23;10.53;;;4.90;;
3627;SDS011;1830;49.000;12.074;2023-03-23T11:10:52;8.03;;;5.60;;
3627;SDS011;1830;49.000;12.074;2023-03-23T11:13:20;7.90;;;5.37;;
3627;SDS011;1830;49.000;12.074;2023-03-23T11:15:53;7.53;;;4.63;;
3627;SDS011;1830;49.000;12.074;2023-03-23T11:18:21;11.80;;;4.90;;
3627;SDS011;1830;49.000;12.074;2023-03-23T11:20:50;8.70;;;4.40;;
3627;SDS011;1830;49.000;12.074;2023-03-23T11:23:21;6.93;;;4.80;;
3627;SDS011;1830;49.000;12.074;2023-03-23T11:25:50;7.10;;;4.20;;
3627;SDS011;1830;49.000;12.074;2023-03-23T11:28:20;6.63;;;4.00;;
3627;SDS011;1830;49.000;12.074;2023-03-23T11:30:49;65.33;;;20.83;;
3627;SDS011;1830;49.000;12.074;2023-03-23T11:33:19;6.10;;;3.00;;
3627;SDS011;1830;49.000;12.074;2023-03-23T11:35:46;9.63;;;3.33;;
3627;SDS011;1830;49.000;12.074;2023-03-23T11:38:15;7.53;;;2.93;;
3627;SDS011;1830;49.000;12.074;2023-03-23T11:40:48;6.00;;;2.77;;
3627;SDS011;1830;49.000;12.074;2023-03-23T11:43:18;6.83;;;3.30;;
3627;SDS011;1830;49.000;12.074;2023-03-23T11:45:50;3.57;;;2.87;;
3627;SDS011;1830;49.000;12.074;2023-03-23T11:48:28;5.30;;;2.70;;
3627;SDS011;1830;49.000;12.074;2023-03-23T11:51:02;5.87;;;2.97;;
3627;SDS011;1830;49.000;12.074;2023-03-23T11:53:35;4.60;;;2.83;;
3627;SDS011;1830;49.000;12.074;2023-03-23T11:56:11;3.90;;;2.83;;
3627;SDS011;1830;49.000;12.074;2023-03-23T11:58:43;4.40;;;2.40;;
3627;SDS011;1830;49.000;12.074;2023-03-23T12:01:13;4.43;;;2.50;;
3627;SDS011;1830;49.000;12.074;2023-03-23T12:03:54;3.33;;;2.67;;
3627;SDS011;1830;49.000;12.074;2023-03-23T12:06:40;6.70;;;3.40;;
3627;SDS011;1830;49.000;12.074;2023-03-23T12:09:18;3.13;;;2.60;;
3627;SDS011;1830;49.000;12.074;2023-03-23T12:11:56;3.53;;;2.50;;
3627;SDS011;1830;49.000;12.074;2023-03-23T12:14:33;11.03;;;3.23;;
3627;SDS011;1830;49.000;12.074;2023-03-23T12:17:14;6.03;;;3.07;;
3627;SDS011;1830;49.000;12.074;2023-03-23T12:19:46;4.97;;;2.73;;
3627;SDS011;1830;49.000;12.074;2023-03-23T12:22:27;4.60;;;2.50;;
3627;SDS011;1830;49.000;12.074;2023-03-23T12:25:08;5.90;;;3.50;;
3627;SDS011;1830;49.000;12.074;2023-03-23T12:27:46;7.43;;;3.07;;
3627;SDS011;1830;49.000;12.074;2023-03-23T12:30:25;8.23;;;3.97;;
3627;SDS011;1830;49.000;12.074;2023-03-23T12:33:17;5.23;;;3.03;;
3627;SDS011;1830;49.000;12.074;2023-03-23T12:35:55;3.47;;;3.17;;
3627;SDS011;1830;49.000;12.074;2023-03-23T12:38:39;5.70;;;3.30;;
3627;SDS011;1830;49.000;12.074;2023-03-23T12:41:29;3.80;;;3.30;;
3627;SDS011;1830;49.000;12.074;2023-03-23T12:44:03;8.30;;;4.60;;
3627;SDS011;1830;49.000;12.074;2023-03-23T12:49:29;6.00;;;3.43;;
3627;SDS011;1830;49.000;12.074;2023-03-23T12:52:01;7.23;;;3.83;;
3627;SDS011;1830;49.000;12.074;2023-03-23T12:54:38;10.23;;;4.50;;
3627;SDS011;1830;49.000;12.074;2023-03-23T12:57:10;12.13;;;3.00;;
3627;SDS011;1830;49.000;12.074;2023-03-23T12:59:43;8.30;;;3.50;;
3627;SDS011;1830;49.000;12.074;2023-03-23T13:02:16;4.83;;;2.90;;
3627;SDS011;1830;49.000;12.074;2023-03-23T13:04:50;9.53;;;3.47;;
3627;SDS011;1830;49.000;12.074;2023-03-23T13:07:23;5.87;;;3.20;;
3627;SDS011;1830;49.000;12.074;2023-03-23T13:09:55;5.50;;;3.20;;
3627;SDS011;1830;49.000;12.074;2023-03-23T13:12:29;6.97;;;2.90;;
3627;SDS011;1830;49.000;12.074;2023-03-23T13:15:00;16.13;;;3.17;;
3627;SDS011;1830;49.000;12.074;2023-03-23T13:17:35;5.40;;;3.80;;
3627;SDS011;1830;49.000;12.074;2023-03-23T13:20:21;7.90;;;2.97;;
3627;SDS011;1830;49.000;12.074;2023-03-23T13:23:08;7.80;;;3.03;;
3627;SDS011;1830;49.000;12.074;2023-03-23T13:25:45;5.57;;;3.50;;
3627;SDS011;1830;49.000;12.074;2023-03-23T13:28:15;5.37;;;2.70;;
3627;SDS011;1830;49.000;12.074;2023-03-23T13:30:52;3.13;;;2.40;;
3627;SDS011;1830;49.000;12.074;2023-03-23T13:33:31;6.30;;;3.30;;
3627;SDS011;1830;49.000;12.074;2023-03-23T13:36:08;4.60;;;3.03;;
3627;SDS011;1830;49.000;12.074;2023-03-23T13:38:36;4.00;;;3.60;;
3627;SDS011;1830;49.000;12.074;2023-03-23T13:41:08;3.70;;;2.50;;
3627;SDS011;1830;49.000;12.074;2023-03-23T13:43:38;2.73;;;2.20;;
3627;SDS011;1830;49.000;12.074;2023-03-23T13:46:09;5.40;;;2.47;;
3627;SDS011;1830;49.000;12.074;2023-03-23T13:49:03;5.13;;;2.50;;
3627;SDS011;1830;49.000;12.074;2023-03-23T13:51:52;3.23;;;1.93;;
3627;SDS011;1830;49.000;12.074;2023-03-23T13:54:42;5.63;;;2.53;;
3627;SDS011;1830;49.000;12.074;2023-03-23T13:57:32;4.47;;;2.60;;
3627;SDS011;1830;49.000;12.074;2023-03-23T14:00:10;4.60;;;2.47;;
3627;SDS011;1830;49.000;12.074;2023-03-23T14:02:50;8.00;;;2.10;;
3627;SDS011;1830;49.000;12.074;2023-03-23T14:05:31;4.07;;;2.37;;
3627;SDS011;1830;49.000;12.074;2023-03-23T14:08:02;6.03;;;2.37;;
3627;SDS011;1830;49.000;12.074;2023-03-23T14:10:37;4.53;;;2.40;;
3627;SDS011;1830;49.000;12.074;2023-03-23T14:13:10;4.67;;;3.00;;
3627;SDS011;1830;49.000;12.074;2023-03-23T14:15:43;4.13;;;2.73;;
3627;SDS011;1830;49.000;12.074;2023-03-23T14:18:13;4.27;;;2.90;;
3627;SDS011;1830;49.000;12.074;2023-03-23T14:20:42;2.90;;;2.60;;
3627;SDS011;1830;49.000;12.074;2023-03-23T14:23:16;5.80;;;2.57;;
3627;SDS011;1830;49.000;12.074;2023-03-23T14:25:44;3.00;;;2.30;;
3627;SDS011;1830;49.000;12.074;2023-03-23T14:28:20;2.33;;;2.13;;
3627;SDS011;1830;49.000;12.074;2023-03-23T14:30:48;3.73;;;2.40;;
3627;SDS011;1830;49.000;12.074;2023-03-23T14:33:18;3.13;;;2.20;;
3627;SDS011;1830;49.000;12.074;2023-03-23T14:35:46;10.17;;;3.47;;
3627;SDS011;1830;49.000;12.074;2023-03-23T14:38:15;2.50;;;2.20;;
3627;SDS011;1830;49.000;12.074;2023-03-23T14:40:45;6.53;;;2.70;;
3627;SDS011;1830;49.000;12.074;2023-03-23T14:43:14;4.07;;;2.50;;
3627;SDS011;1830;49.000;12.074;2023-03-23T14:45:46;5.50;;;2.47;;
3627;SDS011;1830;49.000;12.074;2023-03-23T14:48:18;2.90;;;2.40;;
3627;SDS011;1830;49.000;12.074;2023-03-23T14:50:50;2.97;;;2.13;;
3627;SDS011;1830;49.000;12.074;2023-03-23T14:53:21;4.20;;;2.20;;
3627;SDS011;1830;49.000;12.074;2023-03-23T14:55:51;3.63;;;2.53;;
3627;SDS011;1830;49.000;12.074;2023-03-23T14:58:19;5.00;;;2.77;;
3627;SDS011;1830;49.000;12.074;2023-03-23T15:00:47;4.13;;;2.30;;
3627;SDS011;1830;49.000;12.074;2023-03-23T15:03:19;4.17;;;2.93;;
3627;SDS011;1830;49.000;12.074;2023-03-23T15:05:48;4.70;;;2.97;;
3627;SDS011;1830;49.000;12.074;2023-03-23T15:08:18;5.97;;;2.87;;
3627;SDS011;1830;49.000;12.074;2023-03-23T15:10:55;4.27;;;2.70;;
3627;SDS011;1830;49.000;12.074;2023-03-23T15:13:29;6.37;;;3.20;;
3627;SDS011;1830;49.000;12.074;2023-03-23T15:16:01;4.20;;;2.83;;
3627;SDS011;1830;49.000;12.074;2023-03-23T15:18:30;11.03;;;4.80;;
3627;SDS011;1830;49.000;12.074;2023-03-23T15:21:07;3.50;;;2.70;;